METAR Data
IDs: Format: Raw Decoded Include TAF

Data at: 2114 UTC 02 Aug 2021

KMXO 022055Z AUTO 00000KT 10SM SCT060 BKN075 24/12 A3013 RMK AO2